sensor_id;sensor_type;location;lat;lon;timestamp;P1;durP1;ratioP1;P2;durP2;ratioP2
23068;SDS011;11702;50.856;4.348;2023-03-23T00:01:24;11.30;;;5.20;;
23068;SDS011;11702;50.856;4.348;2023-03-23T00:03:51;9.65;;;5.78;;
23068;SDS011;11702;50.856;4.348;2023-03-23T00:06:22;12.90;;;5.72;;
23068;SDS011;11702;50.856;4.348;2023-03-23T00:08:53;10.40;;;5.60;;
23068;SDS011;11702;50.856;4.348;2023-03-23T00:11:24;7.97;;;4.60;;
23068;SDS011;11702;50.856;4.348;2023-03-23T00:13:54;9.85;;;5.22;;
23068;SDS011;11702;50.856;4.348;2023-03-23T00:16:23;7.65;;;4.57;;
23068;SDS011;11702;50.856;4.348;2023-03-23T00:19:01;7.50;;;5.10;;
23068;SDS011;11702;50.856;4.348;2023-03-23T00:21:32;8.05;;;4.50;;
23068;SDS011;11702;50.856;4.348;2023-03-23T00:24:07;5.50;;;4.63;;
23068;SDS011;11702;50.856;4.348;2023-03-23T00:26:37;5.07;;;4.30;;
23068;SDS011;11702;50.856;4.348;2023-03-23T00:31:43;5.65;;;4.00;;
23068;SDS011;11702;50.856;4.348;2023-03-23T00:34:12;6.78;;;4.00;;
23068;SDS011;11702;50.856;4.348;2023-03-23T00:36:43;6.82;;;4.15;;
23068;SDS011;11702;50.856;4.348;2023-03-23T00:39:10;8.98;;;4.15;;
23068;SDS011;11702;50.856;4.348;2023-03-23T00:41:37;8.00;;;4.20;;
23068;SDS011;11702;50.856;4.348;2023-03-23T00:44:03;7.55;;;4.30;;
23068;SDS011;11702;50.856;4.348;2023-03-23T00:46:33;5.38;;;4.32;;
23068;SDS011;11702;50.856;4.348;2023-03-23T00:48:59;6.95;;;3.92;;
23068;SDS011;11702;50.856;4.348;2023-03-23T00:51:27;5.97;;;4.03;;
23068;SDS011;11702;50.856;4.348;2023-03-23T00:53:52;6.20;;;3.90;;
23068;SDS011;11702;50.856;4.348;2023-03-23T00:56:18;5.35;;;3.97;;
23068;SDS011;11702;50.856;4.348;2023-03-23T00:58:43;8.38;;;4.32;;
23068;SDS011;11702;50.856;4.348;2023-03-23T01:01:09;7.47;;;4.57;;
23068;SDS011;11702;50.856;4.348;2023-03-23T01:03:35;8.20;;;4.22;;
23068;SDS011;11702;50.856;4.348;2023-03-23T01:06:05;5.47;;;4.10;;
23068;SDS011;11702;50.856;4.348;2023-03-23T01:08:33;9.82;;;4.22;;
23068;SDS011;11702;50.856;4.348;2023-03-23T01:11:05;6.03;;;4.22;;
23068;SDS011;11702;50.856;4.348;2023-03-23T01:13:31;6.15;;;4.38;;
23068;SDS011;11702;50.856;4.348;2023-03-23T01:15:57;6.07;;;4.15;;
23068;SDS011;11702;50.856;4.348;2023-03-23T01:18:23;7.88;;;4.40;;
23068;SDS011;11702;50.856;4.348;2023-03-23T01:20:48;9.43;;;4.25;;
23068;SDS011;11702;50.856;4.348;2023-03-23T01:23:14;5.18;;;4.15;;
23068;SDS011;11702;50.856;4.348;2023-03-23T01:25:39;8.27;;;4.40;;
23068;SDS011;11702;50.856;4.348;2023-03-23T01:28:05;5.80;;;3.80;;
23068;SDS011;11702;50.856;4.348;2023-03-23T01:30:31;5.55;;;3.95;;
23068;SDS011;11702;50.856;4.348;2023-03-23T01:32:57;6.38;;;3.88;;
23068;SDS011;11702;50.856;4.348;2023-03-23T01:35:22;5.78;;;4.75;;
23068;SDS011;11702;50.856;4.348;2023-03-23T01:37:48;7.35;;;3.80;;
23068;SDS011;11702;50.856;4.348;2023-03-23T01:40:14;7.90;;;4.13;;
23068;SDS011;11702;50.856;4.348;2023-03-23T01:42:40;5.80;;;4.07;;
23068;SDS011;11702;50.856;4.348;2023-03-23T01:47:44;5.85;;;4.07;;
23068;SDS011;11702;50.856;4.348;2023-03-23T01:50:11;5.38;;;3.85;;
23068;SDS011;11702;50.856;4.348;2023-03-23T01:52:37;5.18;;;3.60;;
23068;SDS011;11702;50.856;4.348;2023-03-23T01:55:04;5.63;;;3.80;;
23068;SDS011;11702;50.856;4.348;2023-03-23T01:57:30;6.40;;;3.72;;
23068;SDS011;11702;50.856;4.348;2023-03-23T01:59:57;6.68;;;3.80;;
23068;SDS011;11702;50.856;4.348;2023-03-23T02:02:35;6.07;;;3.65;;
23068;SDS011;11702;50.856;4.348;2023-03-23T02:05:06;5.75;;;3.50;;
23068;SDS011;11702;50.856;4.348;2023-03-23T02:07:36;5.60;;;3.80;;
23068;SDS011;11702;50.856;4.348;2023-03-23T02:10:02;6.75;;;3.72;;
23068;SDS011;11702;50.856;4.348;2023-03-23T02:12:28;4.45;;;3.33;;
23068;SDS011;11702;50.856;4.348;2023-03-23T02:15:01;4.85;;;3.33;;
23068;SDS011;11702;50.856;4.348;2023-03-23T02:36:33;4.18;;;1.88;;
23068;SDS011;11702;50.856;4.348;2023-03-23T02:39:18;5.75;;;2.20;;
23068;SDS011;11702;50.856;4.348;2023-03-23T02:41:58;6.20;;;2.25;;
23068;SDS011;11702;50.856;4.348;2023-03-23T02:44:28;4.50;;;2.05;;
23068;SDS011;11702;50.856;4.348;2023-03-23T02:46:56;5.30;;;1.80;;
23068;SDS011;11702;50.856;4.348;2023-03-23T02:49:24;4.15;;;2.15;;
23068;SDS011;11702;50.856;4.348;2023-03-23T02:51:52;5.10;;;1.67;;
23068;SDS011;11702;50.856;4.348;2023-03-23T02:54:19;3.15;;;1.60;;
23068;SDS011;11702;50.856;4.348;2023-03-23T02:56:50;4.43;;;1.67;;
23068;SDS011;11702;50.856;4.348;2023-03-23T02:59:17;3.40;;;1.70;;
23068;SDS011;11702;50.856;4.348;2023-03-23T03:04:12;3.95;;;1.80;;
23068;SDS011;11702;50.856;4.348;2023-03-23T03:06:59;5.50;;;1.60;;
23068;SDS011;11702;50.856;4.348;2023-03-23T03:18:38;5.03;;;1.90;;
23068;SDS011;11702;50.856;4.348;2023-03-23T03:21:06;5.90;;;1.63;;
23068;SDS011;11702;50.856;4.348;2023-03-23T03:23:35;8.57;;;1.52;;
23068;SDS011;11702;50.856;4.348;2023-03-23T03:26:06;6.40;;;1.52;;
23068;SDS011;11702;50.856;4.348;2023-03-23T03:28:35;3.10;;;1.70;;
23068;SDS011;11702;50.856;4.348;2023-03-23T03:31:02;5.93;;;1.77;;
23068;SDS011;11702;50.856;4.348;2023-03-23T03:33:29;5.40;;;1.63;;
23068;SDS011;11702;50.856;4.348;2023-03-23T03:36:01;4.57;;;1.50;;
23068;SDS011;11702;50.856;4.348;2023-03-23T03:38:29;7.05;;;2.05;;
23068;SDS011;11702;50.856;4.348;2023-03-23T03:40:55;6.65;;;1.70;;
23068;SDS011;11702;50.856;4.348;2023-03-23T03:43:21;3.38;;;1.40;;
23068;SDS011;11702;50.856;4.348;2023-03-23T03:45:47;5.85;;;1.63;;
23068;SDS011;11702;50.856;4.348;2023-03-23T03:48:12;6.35;;;1.80;;
23068;SDS011;11702;50.856;4.348;2023-03-23T03:50:38;7.28;;;2.00;;
23068;SDS011;11702;50.856;4.348;2023-03-23T03:53:05;6.10;;;1.75;;
23068;SDS011;11702;50.856;4.348;2023-03-23T03:55:31;5.70;;;1.88;;
23068;SDS011;11702;50.856;4.348;2023-03-23T03:58:00;10.93;;;2.58;;
23068;SDS011;11702;50.856;4.348;2023-03-23T04:00:29;4.82;;;1.73;;
23068;SDS011;11702;50.856;4.348;2023-03-23T04:02:55;7.35;;;1.90;;
23068;SDS011;11702;50.856;4.348;2023-03-23T04:05:21;5.15;;;1.67;;
23068;SDS011;11702;50.856;4.348;2023-03-23T04:07:48;6.45;;;1.67;;
23068;SDS011;11702;50.856;4.348;2023-03-23T04:10:17;9.93;;;2.38;;
23068;SDS011;11702;50.856;4.348;2023-03-23T04:12:47;8.88;;;1.98;;
23068;SDS011;11702;50.856;4.348;2023-03-23T04:15:13;9.10;;;2.30;;
23068;SDS011;11702;50.856;4.348;2023-03-23T04:17:39;6.68;;;2.05;;
23068;SDS011;11702;50.856;4.348;2023-03-23T04:20:06;9.32;;;2.20;;
23068;SDS011;11702;50.856;4.348;2023-03-23T04:22:38;9.32;;;2.30;;
23068;SDS011;11702;50.856;4.348;2023-03-23T04:25:03;9.10;;;2.17;;
23068;SDS011;11702;50.856;4.348;2023-03-23T04:27:31;8.75;;;1.77;;
23068;SDS011;11702;50.856;4.348;2023-03-23T04:29:57;9.80;;;1.90;;
23068;SDS011;11702;50.856;4.348;2023-03-23T04:32:24;7.47;;;1.88;;
23068;SDS011;11702;50.856;4.348;2023-03-23T04:34:54;10.30;;;2.03;;
23068;SDS011;11702;50.856;4.348;2023-03-23T04:37:21;6.40;;;1.80;;
23068;SDS011;11702;50.856;4.348;2023-03-23T04:39:50;6.60;;;1.92;;
23068;SDS011;11702;50.856;4.348;2023-03-23T04:42:24;7.85;;;1.70;;
23068;SDS011;11702;50.856;4.348;2023-03-23T04:44:54;7.47;;;1.98;;
23068;SDS011;11702;50.856;4.348;2023-03-23T04:47:21;8.88;;;2.28;;
23068;SDS011;11702;50.856;4.348;2023-03-23T04:49:46;5.50;;;1.70;;
23068;SDS011;11702;50.856;4.348;2023-03-23T04:52:12;7.25;;;1.80;;
23068;SDS011;11702;50.856;4.348;2023-03-23T04:54:38;7.72;;;1.98;;
23068;SDS011;11702;50.856;4.348;2023-03-23T04:57:04;7.68;;;2.00;;
23068;SDS011;11702;50.856;4.348;2023-03-23T04:59:30;7.40;;;1.73;;
23068;SDS011;11702;50.856;4.348;2023-03-23T05:01:56;6.38;;;1.70;;
23068;SDS011;11702;50.856;4.348;2023-03-23T05:04:22;5.63;;;1.55;;
23068;SDS011;11702;50.856;4.348;2023-03-23T05:06:50;3.63;;;1.88;;
23068;SDS011;11702;50.856;4.348;2023-03-23T05:09:19;4.85;;;1.70;;
23068;SDS011;11702;50.856;4.348;2023-03-23T05:11:45;7.90;;;2.13;;
23068;SDS011;11702;50.856;4.348;2023-03-23T05:14:11;9.02;;;1.73;;
23068;SDS011;11702;50.856;4.348;2023-03-23T05:16:36;8.70;;;2.47;;
23068;SDS011;11702;50.856;4.348;2023-03-23T05:19:03;7.50;;;1.67;;
23068;SDS011;11702;50.856;4.348;2023-03-23T05:21:29;6.25;;;1.73;;
23068;SDS011;11702;50.856;4.348;2023-03-23T05:23:57;7.07;;;1.95;;
23068;SDS011;11702;50.856;4.348;2023-03-23T05:26:26;6.78;;;1.60;;
23068;SDS011;11702;50.856;4.348;2023-03-23T05:28:54;10.43;;;1.80;;
23068;SDS011;11702;50.856;4.348;2023-03-23T05:31:21;8.90;;;1.98;;
23068;SDS011;11702;50.856;4.348;2023-03-23T05:33:47;5.53;;;1.55;;
23068;SDS011;11702;50.856;4.348;2023-03-23T05:36:13;9.25;;;2.13;;
23068;SDS011;11702;50.856;4.348;2023-03-23T05:38:39;6.38;;;2.03;;
23068;SDS011;11702;50.856;4.348;2023-03-23T05:41:10;4.75;;;1.90;;
23068;SDS011;11702;50.856;4.348;2023-03-23T05:43:37;5.10;;;1.95;;
23068;SDS011;11702;50.856;4.348;2023-03-23T05:46:03;7.18;;;2.00;;
23068;SDS011;11702;50.856;4.348;2023-03-23T05:48:28;8.82;;;1.95;;
23068;SDS011;11702;50.856;4.348;2023-03-23T05:50:54;6.30;;;2.60;;
23068;SDS011;11702;50.856;4.348;2023-03-23T05:53:21;4.15;;;2.10;;
23068;SDS011;11702;50.856;4.348;2023-03-23T05:55:46;8.77;;;1.75;;
23068;SDS011;11702;50.856;4.348;2023-03-23T05:58:12;10.13;;;2.67;;
23068;SDS011;11702;50.856;4.348;2023-03-23T06:00:38;6.93;;;2.50;;
23068;SDS011;11702;50.856;4.348;2023-03-23T06:03:04;5.43;;;1.95;;
23068;SDS011;11702;50.856;4.348;2023-03-23T06:05:30;7.75;;;2.20;;
23068;SDS011;11702;50.856;4.348;2023-03-23T06:07:57;10.35;;;2.20;;
23068;SDS011;11702;50.856;4.348;2023-03-23T06:10:24;5.80;;;1.85;;
23068;SDS011;11702;50.856;4.348;2023-03-23T06:12:50;10.90;;;2.70;;
23068;SDS011;11702;50.856;4.348;2023-03-23T06:15:16;7.72;;;2.15;;
23068;SDS011;11702;50.856;4.348;2023-03-23T06:17:42;10.55;;;2.13;;
23068;SDS011;11702;50.856;4.348;2023-03-23T06:20:08;7.35;;;2.10;;
23068;SDS011;11702;50.856;4.348;2023-03-23T06:22:37;6.88;;;2.35;;
23068;SDS011;11702;50.856;4.348;2023-03-23T06:25:05;6.60;;;2.35;;
23068;SDS011;11702;50.856;4.348;2023-03-23T06:27:32;8.43;;;1.98;;
23068;SDS011;11702;50.856;4.348;2023-03-23T06:29:58;9.05;;;2.80;;
23068;SDS011;11702;50.856;4.348;2023-03-23T06:32:24;10.20;;;2.63;;
23068;SDS011;11702;50.856;4.348;2023-03-23T06:34:52;14.60;;;2.33;;
23068;SDS011;11702;50.856;4.348;2023-03-23T06:37:18;10.77;;;2.40;;
23068;SDS011;11702;50.856;4.348;2023-03-23T06:39:43;6.80;;;2.25;;
23068;SDS011;11702;50.856;4.348;2023-03-23T06:42:09;7.93;;;2.08;;
23068;SDS011;11702;50.856;4.348;2023-03-23T06:44:36;8.10;;;2.10;;
23068;SDS011;11702;50.856;4.348;2023-03-23T06:47:02;11.40;;;2.47;;
23068;SDS011;11702;50.856;4.348;2023-03-23T06:49:28;9.23;;;2.42;;
23068;SDS011;11702;50.856;4.348;2023-03-23T06:51:54;16.08;;;2.10;;
23068;SDS011;11702;50.856;4.348;2023-03-23T06:54:21;8.90;;;2.25;;
23068;SDS011;11702;50.856;4.348;2023-03-23T06:56:46;13.55;;;2.25;;
23068;SDS011;11702;50.856;4.348;2023-03-23T06:59:12;7.97;;;1.90;;
23068;SDS011;11702;50.856;4.348;2023-03-23T07:01:38;8.02;;;2.25;;
23068;SDS011;11702;50.856;4.348;2023-03-23T07:04:04;8.27;;;1.83;;
23068;SDS011;11702;50.856;4.348;2023-03-23T07:06:30;3.15;;;0.80;;
23068;SDS011;11702;50.856;4.348;2023-03-23T07:08:56;4.43;;;1.33;;
23068;SDS011;11702;50.856;4.348;2023-03-23T07:11:22;4.35;;;1.40;;
23068;SDS011;11702;50.856;4.348;2023-03-23T07:13:49;5.13;;;1.50;;
23068;SDS011;11702;50.856;4.348;2023-03-23T07:16:15;5.65;;;1.67;;
23068;SDS011;11702;50.856;4.348;2023-03-23T07:18:41;4.35;;;1.33;;
23068;SDS011;11702;50.856;4.348;2023-03-23T07:21:07;4.78;;;1.20;;
23068;SDS011;11702;50.856;4.348;2023-03-23T07:23:33;3.33;;;1.10;;
23068;SDS011;11702;50.856;4.348;2023-03-23T07:25:58;3.28;;;1.27;;
23068;SDS011;11702;50.856;4.348;2023-03-23T07:28:26;3.17;;;1.40;;
23068;SDS011;11702;50.856;4.348;2023-03-23T07:30:51;6.20;;;1.70;;
23068;SDS011;11702;50.856;4.348;2023-03-23T07:33:17;6.13;;;1.98;;
23068;SDS011;11702;50.856;4.348;2023-03-23T07:35:43;5.43;;;1.77;;
23068;SDS011;11702;50.856;4.348;2023-03-23T07:38:09;8.45;;;2.83;;
23068;SDS011;11702;50.856;4.348;2023-03-23T07:40:34;6.93;;;1.92;;
23068;SDS011;11702;50.856;4.348;2023-03-23T07:43:01;8.57;;;2.25;;
23068;SDS011;11702;50.856;4.348;2023-03-23T07:45:28;7.95;;;1.92;;
23068;SDS011;11702;50.856;4.348;2023-03-23T07:47:55;8.52;;;2.20;;
23068;SDS011;11702;50.856;4.348;2023-03-23T07:50:21;7.70;;;3.10;;
23068;SDS011;11702;50.856;4.348;2023-03-23T07:52:48;6.00;;;1.80;;
23068;SDS011;11702;50.856;4.348;2023-03-23T07:55:15;6.38;;;2.30;;
23068;SDS011;11702;50.856;4.348;2023-03-23T07:57:44;8.77;;;2.30;;
23068;SDS011;11702;50.856;4.348;2023-03-23T08:00:12;3.42;;;2.08;;
23068;SDS011;11702;50.856;4.348;2023-03-23T08:02:45;2.97;;;2.00;;
23068;SDS011;11702;50.856;4.348;2023-03-23T08:05:12;7.45;;;2.55;;
23068;SDS011;11702;50.856;4.348;2023-03-23T08:07:38;7.90;;;1.90;;
23068;SDS011;11702;50.856;4.348;2023-03-23T08:10:05;6.35;;;2.05;;
23068;SDS011;11702;50.856;4.348;2023-03-23T08:12:35;8.00;;;2.03;;
23068;SDS011;11702;50.856;4.348;2023-03-23T08:15:00;3.97;;;1.70;;
23068;SDS011;11702;50.856;4.348;2023-03-23T08:17:28;3.20;;;1.73;;
23068;SDS011;11702;50.856;4.348;2023-03-23T08:19:54;6.28;;;1.63;;
23068;SDS011;11702;50.856;4.348;2023-03-23T08:22:21;2.70;;;1.50;;
23068;SDS011;11702;50.856;4.348;2023-03-23T08:24:46;7.88;;;1.75;;
23068;SDS011;11702;50.856;4.348;2023-03-23T08:27:12;9.02;;;1.77;;
23068;SDS011;11702;50.856;4.348;2023-03-23T08:29:37;6.32;;;1.83;;
23068;SDS011;11702;50.856;4.348;2023-03-23T08:32:03;6.82;;;1.40;;
23068;SDS011;11702;50.856;4.348;2023-03-23T08:34:29;2.63;;;1.38;;
23068;SDS011;11702;50.856;4.348;2023-03-23T08:36:56;6.85;;;2.13;;
23068;SDS011;11702;50.856;4.348;2023-03-23T08:39:22;7.53;;;1.55;;
23068;SDS011;11702;50.856;4.348;2023-03-23T08:41:50;6.18;;;1.60;;
23068;SDS011;11702;50.856;4.348;2023-03-23T08:44:15;5.60;;;1.65;;
23068;SDS011;11702;50.856;4.348;2023-03-23T08:46:41;9.10;;;1.67;;
23068;SDS011;11702;50.856;4.348;2023-03-23T08:49:06;7.10;;;1.75;;
23068;SDS011;11702;50.856;4.348;2023-03-23T08:51:32;6.00;;;1.50;;
23068;SDS011;11702;50.856;4.348;2023-03-23T08:53:58;6.38;;;1.75;;
23068;SDS011;11702;50.856;4.348;2023-03-23T08:56:24;8.02;;;1.80;;
23068;SDS011;11702;50.856;4.348;2023-03-23T08:58:51;11.02;;;2.53;;
23068;SDS011;11702;50.856;4.348;2023-03-23T09:01:16;6.57;;;1.60;;
23068;SDS011;11702;50.856;4.348;2023-03-23T09:03:42;5.07;;;1.80;;
23068;SDS011;11702;50.856;4.348;2023-03-23T09:06:08;5.90;;;1.60;;
23068;SDS011;11702;50.856;4.348;2023-03-23T09:08:37;6.85;;;1.85;;
23068;SDS011;11702;50.856;4.348;2023-03-23T09:11:03;6.38;;;1.58;;
23068;SDS011;11702;50.856;4.348;2023-03-23T09:13:32;5.40;;;2.10;;
23068;SDS011;11702;50.856;4.348;2023-03-23T09:16:01;3.67;;;1.73;;
23068;SDS011;11702;50.856;4.348;2023-03-23T09:18:28;6.50;;;1.75;;
23068;SDS011;11702;50.856;4.348;2023-03-23T09:20:56;6.93;;;1.65;;
23068;SDS011;11702;50.856;4.348;2023-03-23T09:23:22;5.80;;;1.80;;
23068;SDS011;11702;50.856;4.348;2023-03-23T09:25:47;3.72;;;1.70;;
23068;SDS011;11702;50.856;4.348;2023-03-23T09:28:14;5.45;;;2.30;;
23068;SDS011;11702;50.856;4.348;2023-03-23T09:30:40;5.70;;;2.00;;
23068;SDS011;11702;50.856;4.348;2023-03-23T09:33:06;6.30;;;1.90;;
23068;SDS011;11702;50.856;4.348;2023-03-23T09:35:33;4.00;;;1.75;;
23068;SDS011;11702;50.856;4.348;2023-03-23T09:38:00;2.90;;;1.60;;
23068;SDS011;11702;50.856;4.348;2023-03-23T09:40:29;3.08;;;1.60;;
23068;SDS011;11702;50.856;4.348;2023-03-23T09:42:58;5.35;;;2.13;;
23068;SDS011;11702;50.856;4.348;2023-03-23T09:50:59;8.75;;;1.95;;
23068;SDS011;11702;50.856;4.348;2023-03-23T09:53:39;2.55;;;1.70;;
23068;SDS011;11702;50.856;4.348;2023-03-23T09:56:11;3.78;;;1.90;;
23068;SDS011;11702;50.856;4.348;2023-03-23T10:04:49;8.95;;;1.90;;
23068;SDS011;11702;50.856;4.348;2023-03-23T10:07:20;7.15;;;1.90;;
23068;SDS011;11702;50.856;4.348;2023-03-23T10:09:52;4.45;;;2.58;;
23068;SDS011;11702;50.856;4.348;2023-03-23T10:15:27;4.22;;;2.03;;
23068;SDS011;11702;50.856;4.348;2023-03-23T10:18:00;4.85;;;2.13;;
23068;SDS011;11702;50.856;4.348;2023-03-23T10:25:48;6.10;;;2.00;;
23068;SDS011;11702;50.856;4.348;2023-03-23T10:28:37;5.05;;;2.10;;
23068;SDS011;11702;50.856;4.348;2023-03-23T10:31:13;4.68;;;2.25;;
23068;SDS011;11702;50.856;4.348;2023-03-23T10:33:47;3.92;;;1.85;;
23068;SDS011;11702;50.856;4.348;2023-03-23T10:38:55;4.88;;;1.95;;
23068;SDS011;11702;50.856;4.348;2023-03-23T10:41:26;5.35;;;2.40;;
23068;SDS011;11702;50.856;4.348;2023-03-23T10:43:52;7.10;;;2.72;;
23068;SDS011;11702;50.856;4.348;2023-03-23T10:49:08;6.32;;;2.17;;
23068;SDS011;11702;50.856;4.348;2023-03-23T10:51:37;4.50;;;2.22;;
23068;SDS011;11702;50.856;4.348;2023-03-23T10:54:07;5.90;;;2.17;;
23068;SDS011;11702;50.856;4.348;2023-03-23T10:56:37;10.05;;;2.70;;
23068;SDS011;11702;50.856;4.348;2023-03-23T10:59:41;6.63;;;2.47;;
23068;SDS011;11702;50.856;4.348;2023-03-23T11:02:10;6.47;;;2.22;;
23068;SDS011;11702;50.856;4.348;2023-03-23T11:04:44;9.63;;;2.53;;
23068;SDS011;11702;50.856;4.348;2023-03-23T11:07:15;8.55;;;2.75;;
23068;SDS011;11702;50.856;4.348;2023-03-23T11:09:52;9.93;;;2.65;;
23068;SDS011;11702;50.856;4.348;2023-03-23T11:12:21;11.40;;;2.72;;
23068;SDS011;11702;50.856;4.348;2023-03-23T11:14:48;6.95;;;2.42;;
23068;SDS011;11702;50.856;4.348;2023-03-23T11:17:26;8.75;;;2.67;;
23068;SDS011;11702;50.856;4.348;2023-03-23T11:19:52;9.43;;;2.63;;
23068;SDS011;11702;50.856;4.348;2023-03-23T11:24:59;5.18;;;2.80;;
23068;SDS011;11702;50.856;4.348;2023-03-23T11:27:26;6.80;;;2.40;;
23068;SDS011;11702;50.856;4.348;2023-03-23T11:29:53;5.97;;;2.63;;
23068;SDS011;11702;50.856;4.348;2023-03-23T11:32:33;9.60;;;2.88;;
23068;SDS011;11702;50.856;4.348;2023-03-23T11:35:01;10.15;;;2.70;;
23068;SDS011;11702;50.856;4.348;2023-03-23T11:37:34;8.93;;;2.70;;
23068;SDS011;11702;50.856;4.348;2023-03-23T11:43:17;11.23;;;2.63;;
23068;SDS011;11702;50.856;4.348;2023-03-23T11:45:48;8.45;;;2.35;;
23068;SDS011;11702;50.856;4.348;2023-03-23T11:48:42;8.30;;;2.78;;
23068;SDS011;11702;50.856;4.348;2023-03-23T11:51:16;8.90;;;2.90;;
23068;SDS011;11702;50.856;4.348;2023-03-23T11:54:09;8.95;;;3.03;;
23068;SDS011;11702;50.856;4.348;2023-03-23T11:56:43;8.32;;;2.72;;
23068;SDS011;11702;50.856;4.348;2023-03-23T11:59:16;8.00;;;2.50;;
23068;SDS011;11702;50.856;4.348;2023-03-23T12:01:50;5.18;;;1.80;;
23068;SDS011;11702;50.856;4.348;2023-03-23T12:12:56;6.30;;;2.08;;
23068;SDS011;11702;50.856;4.348;2023-03-23T12:21:18;7.53;;;2.40;;
23068;SDS011;11702;50.856;4.348;2023-03-23T12:26:40;11.10;;;2.67;;
23068;SDS011;11702;50.856;4.348;2023-03-23T12:29:23;4.70;;;2.47;;
23068;SDS011;11702;50.856;4.348;2023-03-23T12:35:14;9.98;;;2.90;;
23068;SDS011;11702;50.856;4.348;2023-03-23T12:43:47;13.82;;;3.25;;
23068;SDS011;11702;50.856;4.348;2023-03-23T12:49:28;7.28;;;2.45;;
23068;SDS011;11702;50.856;4.348;2023-03-23T12:58:15;10.65;;;2.20;;
23068;SDS011;11702;50.856;4.348;2023-03-23T13:01:05;11.20;;;2.67;;
23068;SDS011;11702;50.856;4.348;2023-03-23T13:03:53;8.43;;;2.83;;
23068;SDS011;11702;50.856;4.348;2023-03-23T13:06:30;12.20;;;2.88;;
23068;SDS011;11702;50.856;4.348;2023-03-23T13:09:02;10.57;;;3.20;;
23068;SDS011;11702;50.856;4.348;2023-03-23T13:11:44;9.80;;;2.50;;
23068;SDS011;11702;50.856;4.348;2023-03-23T13:17:06;7.93;;;2.85;;
23068;SDS011;11702;50.856;4.348;2023-03-23T13:22:45;11.30;;;2.63;;
23068;SDS011;11702;50.856;4.348;2023-03-23T13:28:17;7.80;;;2.33;;
23068;SDS011;11702;50.856;4.348;2023-03-23T13:33:45;9.18;;;2.97;;
23068;SDS011;11702;50.856;4.348;2023-03-23T13:36:14;10.10;;;2.55;;
23068;SDS011;11702;50.856;4.348;2023-03-23T13:38:46;8.55;;;2.60;;
23068;SDS011;11702;50.856;4.348;2023-03-23T13:41:14;11.43;;;2.75;;
23068;SDS011;11702;50.856;4.348;2023-03-23T13:43:45;12.05;;;2.60;;
23068;SDS011;11702;50.856;4.348;2023-03-23T13:48:49;10.98;;;3.00;;
23068;SDS011;11702;50.856;4.348;2023-03-23T13:54:47;7.75;;;2.72;;
23068;SDS011;11702;50.856;4.348;2023-03-23T14:03:11;6.63;;;2.08;;
23068;SDS011;11702;50.856;4.348;2023-03-23T14:08:36;10.40;;;2.90;;
23068;SDS011;11702;50.856;4.348;2023-03-23T14:11:11;7.57;;;2.60;;
23068;SDS011;11702;50.856;4.348;2023-03-23T14:16:38;7.90;;;2.78;;
23068;SDS011;11702;50.856;4.348;2023-03-23T14:19:17;12.57;;;2.65;;
23068;SDS011;11702;50.856;4.348;2023-03-23T14:21:59;12.50;;;3.10;;
23068;SDS011;11702;50.856;4.348;2023-03-23T14:24:32;11.32;;;3.63;;
23068;SDS011;11702;50.856;4.348;2023-03-23T14:29:30;8.75;;;2.67;;
23068;SDS011;11702;50.856;4.348;2023-03-23T14:31:56;9.18;;;2.85;;
23068;SDS011;11702;50.856;4.348;2023-03-23T14:34:25;9.73;;;3.22;;
23068;SDS011;11702;50.856;4.348;2023-03-23T14:36:53;8.93;;;3.03;;
23068;SDS011;11702;50.856;4.348;2023-03-23T14:39:25;13.50;;;3.08;;
23068;SDS011;11702;50.856;4.348;2023-03-23T14:41:52;9.68;;;3.10;;
23068;SDS011;11702;50.856;4.348;2023-03-23T14:44:29;15.07;;;3.47;;
23068;SDS011;11702;50.856;4.348;2023-03-23T14:46:57;9.15;;;2.38;;
23068;SDS011;11702;50.856;4.348;2023-03-23T14:49:32;7.75;;;2.50;;
23068;SDS011;11702;50.856;4.348;2023-03-23T14:52:10;14.20;;;2.60;;
23068;SDS011;11702;50.856;4.348;2023-03-23T14:54:38;9.48;;;2.47;;
23068;SDS011;11702;50.856;4.348;2023-03-23T14:59:52;8.05;;;2.55;;
23068;SDS011;11702;50.856;4.348;2023-03-23T15:02:21;9.07;;;2.63;;
23068;SDS011;11702;50.856;4.348;2023-03-23T15:05:02;11.52;;;3.20;;
23068;SDS011;11702;50.856;4.348;2023-03-23T15:07:38;8.68;;;3.17;;
23068;SDS011;11702;50.856;4.348;2023-03-23T15:10:14;9.63;;;2.80;;
23068;SDS011;11702;50.856;4.348;2023-03-23T15:12:43;20.85;;;3.53;;
23068;SDS011;11702;50.856;4.348;2023-03-23T15:15:32;10.43;;;3.13;;
23068;SDS011;11702;50.856;4.348;2023-03-23T15:17:59;12.40;;;2.50;;
23068;SDS011;11702;50.856;4.348;2023-03-23T15:20:27;9.68;;;3.20;;
23068;SDS011;11702;50.856;4.348;2023-03-23T15:23:14;11.85;;;3.22;;
23068;SDS011;11702;50.856;4.348;2023-03-23T15:25:52;17.35;;;4.90;;
23068;SDS011;11702;50.856;4.348;2023-03-23T15:28:20;14.63;;;5.18;;
23068;SDS011;11702;50.856;4.348;2023-03-23T15:30:53;16.65;;;5.70;;
23068;SDS011;11702;50.856;4.348;2023-03-23T15:33:24;17.95;;;5.93;;
23068;SDS011;11702;50.856;4.348;2023-03-23T15:35:54;14.52;;;4.93;;
23068;SDS011;11702;50.856;4.348;2023-03-23T15:38:25;12.48;;;5.57;;
23068;SDS011;11702;50.856;4.348;2023-03-23T15:40:59;10.57;;;4.10;;
23068;SDS011;11702;50.856;4.348;2023-03-23T15:43:35;18.98;;;4.50;;
23068;SDS011;11702;50.856;4.348;2023-03-23T15:51:27;12.65;;;3.55;;
23068;SDS011;11702;50.856;4.348;2023-03-23T15:53:55;8.95;;;2.95;;
23068;SDS011;11702;50.856;4.348;2023-03-23T15:56:22;12.77;;;3.60;;
23068;SDS011;11702;50.856;4.348;2023-03-23T15:58:48;13.05;;;3.97;;
23068;SDS011;11702;50.856;4.348;2023-03-23T16:01:17;14.88;;;3.40;;
23068;SDS011;11702;50.856;4.348;2023-03-23T16:04:05;12.40;;;3.78;;
23068;SDS011;11702;50.856;4.348;2023-03-23T16:06:34;16.05;;;3.50;;
23068;SDS011;11702;50.856;4.348;2023-03-23T16:09:01;10.50;;;3.45;;
23068;SDS011;11702;50.856;4.348;2023-03-23T16:11:29;9.57;;;2.80;;
23068;SDS011;11702;50.856;4.348;2023-03-23T16:13:56;12.10;;;2.53;;
23068;SDS011;11702;50.856;4.348;2023-03-23T16:16:23;12.38;;;2.40;;
23068;SDS011;11702;50.856;4.348;2023-03-23T16:18:51;8.98;;;2.42;;
23068;SDS011;11702;50.856;4.348;2023-03-23T16:21:17;8.20;;;2.20;;
23068;SDS011;11702;50.856;4.348;2023-03-23T16:23:43;12.45;;;2.40;;
23068;SDS011;11702;50.856;4.348;2023-03-23T16:26:10;13.02;;;2.95;;
23068;SDS011;11702;50.856;4.348;2023-03-23T16:28:37;8.98;;;2.80;;
23068;SDS011;11702;50.856;4.348;2023-03-23T16:31:03;10.82;;;3.03;;
23068;SDS011;11702;50.856;4.348;2023-03-23T16:33:28;12.07;;;3.15;;
23068;SDS011;11702;50.856;4.348;2023-03-23T16:35:54;11.50;;;3.53;;
23068;SDS011;11702;50.856;4.348;2023-03-23T16:38:22;14.05;;;3.80;;
23068;SDS011;11702;50.856;4.348;2023-03-23T16:40:48;11.18;;;3.28;;
23068;SDS011;11702;50.856;4.348;2023-03-23T16:43:13;10.75;;;3.78;;
23068;SDS011;11702;50.856;4.348;2023-03-23T16:45:40;12.18;;;4.43;;
23068;SDS011;11702;50.856;4.348;2023-03-23T16:48:09;16.05;;;4.53;;
23068;SDS011;11702;50.856;4.348;2023-03-23T16:50:36;11.05;;;3.97;;
23068;SDS011;11702;50.856;4.348;2023-03-23T16:53:02;11.90;;;3.63;;
23068;SDS011;11702;50.856;4.348;2023-03-23T16:55:29;12.75;;;3.30;;
23068;SDS011;11702;50.856;4.348;2023-03-23T16:57:55;10.93;;;3.35;;
23068;SDS011;11702;50.856;4.348;2023-03-23T17:00:21;15.57;;;3.65;;
23068;SDS011;11702;50.856;4.348;2023-03-23T17:02:48;9.80;;;3.08;;
23068;SDS011;11702;50.856;4.348;2023-03-23T17:05:16;10.25;;;3.20;;
23068;SDS011;11702;50.856;4.348;2023-03-23T17:07:43;8.50;;;3.15;;
23068;SDS011;11702;50.856;4.348;2023-03-23T17:10:10;15.43;;;3.38;;
23068;SDS011;11702;50.856;4.348;2023-03-23T17:12:37;11.55;;;3.15;;
23068;SDS011;11702;50.856;4.348;2023-03-23T17:15:03;11.52;;;4.00;;
23068;SDS011;11702;50.856;4.348;2023-03-23T17:17:30;11.13;;;3.30;;
23068;SDS011;11702;50.856;4.348;2023-03-23T17:19:56;12.85;;;3.42;;